createdAt,value
2018-04-25T00:00:46.667Z,1012.08
2018-04-25T00:02:14.068Z,1012.09
2018-04-25T00:03:41.365Z,1012.07
2018-04-25T00:05:08.638Z,1012.05
2018-04-25T00:06:36.073Z,1012.04
2018-04-25T00:08:03.464Z,1012.04
2018-04-25T00:09:30.927Z,1012.02
2018-04-25T00:10:58.297Z,1012.01
2018-04-25T00:12:25.583Z,1011.98
2018-04-25T00:13:52.773Z,1011.96
2018-04-25T00:15:20.121Z,1011.92
2018-04-25T00:16:47.448Z,1011.89
2018-04-25T00:18:14.539Z,1011.85
2018-04-25T00:19:41.869Z,1011.84
2018-04-25T00:21:09.392Z,1011.80
2018-04-25T00:22:36.910Z,1011.75
2018-04-25T00:24:04.237Z,1011.75
2018-04-25T00:25:31.805Z,1011.77
2018-04-25T00:26:59.147Z,1011.74
2018-04-25T00:28:26.616Z,1011.68
2018-04-25T00:29:53.877Z,1011.61
2018-04-25T00:31:21.880Z,1011.57
2018-04-25T00:32:48.440Z,1011.55
2018-04-25T00:34:15.759Z,1011.50
2018-04-25T00:35:42.994Z,1011.44
2018-04-25T00:37:10.198Z,1011.41
2018-04-25T00:38:37.527Z,1011.38
2018-04-25T00:40:05.006Z,1011.37
2018-04-25T00:41:32.491Z,1011.34
2018-04-25T00:42:59.763Z,1011.30
2018-04-25T00:44:27.226Z,1011.21
2018-04-25T00:45:54.703Z,1011.20
2018-04-25T00:47:22.083Z,1011.19
2018-04-25T00:48:49.382Z,1011.14
2018-04-25T00:50:16.528Z,1011.09
2018-04-25T00:51:43.800Z,1011.05
2018-04-25T00:53:11.172Z,1011.05
2018-04-25T00:54:38.557Z,1011.06
2018-04-25T00:56:05.751Z,1011.05
2018-04-25T00:57:32.969Z,1011.02
2018-04-25T00:59:00.324Z,1011.04
2018-04-25T01:00:27.742Z,1011.03
2018-04-25T01:01:55.057Z,1011.02
2018-04-25T01:03:22.397Z,1011.00
2018-04-25T01:04:49.821Z,1010.95
2018-04-25T01:06:16.973Z,1010.95
2018-04-25T01:07:44.285Z,1010.92
2018-04-25T01:09:11.589Z,1010.93
2018-04-25T01:10:39.080Z,1010.90
2018-04-25T01:12:06.367Z,1010.90
2018-04-25T01:13:33.765Z,1010.89
2018-04-25T01:15:01.104Z,1010.85
2018-04-25T01:16:28.369Z,1010.82
2018-04-25T01:17:55.591Z,1010.75
2018-04-25T01:19:23.059Z,1010.71
2018-04-25T01:20:50.474Z,1010.68
2018-04-25T01:22:17.833Z,1010.68
2018-04-25T01:23:44.985Z,1010.66
2018-04-25T01:25:12.319Z,1010.56
2018-04-25T01:26:39.561Z,1010.54
2018-04-25T01:28:07.012Z,1010.52
2018-04-25T01:29:34.446Z,1010.54
2018-04-25T01:31:01.639Z,1010.55
2018-04-25T01:32:28.991Z,1010.51
2018-04-25T01:33:56.354Z,1010.52
2018-04-25T01:35:23.662Z,1010.55
2018-04-25T01:36:51.023Z,1010.52
2018-04-25T01:38:18.317Z,1010.47
2018-04-25T01:39:45.551Z,1010.41
2018-04-25T01:41:13.148Z,1010.44
2018-04-25T01:42:40.560Z,1010.52
2018-04-25T01:44:07.823Z,1010.53
2018-04-25T01:45:35.183Z,1010.46
2018-04-25T01:47:02.401Z,1010.39
2018-04-25T01:48:29.866Z,1010.33
2018-04-25T01:49:57.029Z,1010.27
2018-04-25T01:51:24.415Z,1010.21
2018-04-25T01:52:51.759Z,1010.16
2018-04-25T01:54:19.025Z,1010.09
2018-04-25T01:55:46.179Z,1010.05
2018-04-25T01:57:13.634Z,1010.09
2018-04-25T01:58:40.988Z,1010.10
2018-04-25T02:00:08.295Z,1010.11
2018-04-25T02:01:35.697Z,1010.06
2018-04-25T02:03:03.084Z,1009.99
2018-04-25T02:04:30.203Z,1009.97
2018-04-25T02:05:57.584Z,1009.89
2018-04-25T02:07:24.921Z,1009.85
2018-04-25T02:08:52.131Z,1009.78
2018-04-25T02:10:19.074Z,1009.77
2018-04-25T02:11:46.346Z,1009.82
2018-04-25T02:13:13.617Z,1009.75
2018-04-25T02:14:41.160Z,1009.68
2018-04-25T02:16:08.360Z,1009.63
2018-04-25T02:17:35.629Z,1009.60
2018-04-25T02:19:02.900Z,1009.57
2018-04-25T02:20:30.266Z,1009.55
2018-04-25T02:21:57.673Z,1009.54
2018-04-25T02:23:25.108Z,1009.52
2018-04-25T02:24:52.467Z,1009.55
2018-04-25T02:26:19.741Z,1009.53
2018-04-25T02:27:47.027Z,1009.43
2018-04-25T02:29:14.274Z,1009.40
2018-04-25T02:30:41.601Z,1009.31
2018-04-25T02:32:08.920Z,1009.25
2018-04-25T02:33:36.272Z,1009.24
2018-04-25T02:35:03.487Z,1009.23
2018-04-25T02:36:30.763Z,1009.14
2018-04-25T02:37:58.029Z,1009.10
2018-04-25T02:39:25.011Z,1009.04
2018-04-25T02:40:52.229Z,1009.00
2018-04-25T02:42:19.485Z,1008.93
2018-04-25T02:43:46.901Z,1008.93
2018-04-25T02:45:13.932Z,1008.89
2018-04-25T02:46:41.541Z,1008.87
2018-04-25T02:48:08.744Z,1008.82
2018-04-25T02:49:36.116Z,1008.75
2018-04-25T02:51:03.546Z,1008.69
2018-04-25T02:52:30.432Z,1008.70
2018-04-25T02:53:57.735Z,1008.67
2018-04-25T02:55:25.083Z,1008.66
2018-04-25T02:56:52.427Z,1008.60
2018-04-25T02:58:19.784Z,1008.46
2018-04-25T02:59:47.002Z,1008.39
2018-04-25T03:01:14.205Z,1008.38
2018-04-25T03:02:41.772Z,1008.35
2018-04-25T03:04:08.877Z,1008.30
2018-04-25T03:05:36.295Z,1008.22
2018-04-25T03:07:03.668Z,1008.23
2018-04-25T03:08:30.968Z,1008.19
2018-04-25T03:09:58.241Z,1008.18
2018-04-25T03:11:25.536Z,1008.15
2018-04-25T03:12:52.932Z,1008.13
2018-04-25T03:14:20.074Z,1008.09
2018-04-25T03:15:47.347Z,1008.06
2018-04-25T03:17:14.550Z,1008.03
2018-04-25T03:18:41.742Z,1008.01
2018-04-25T03:20:08.989Z,1008.03
2018-04-25T03:21:36.297Z,1008.02
2018-04-25T03:23:03.732Z,1007.96
2018-04-25T03:24:30.838Z,1007.92
2018-04-25T03:25:58.227Z,1007.87
2018-04-25T03:27:25.518Z,1007.84
2018-04-25T03:28:53.036Z,1007.84
2018-04-25T03:30:20.273Z,1007.80
2018-04-25T03:31:47.575Z,1007.77
2018-04-25T03:33:14.711Z,1007.72
2018-04-25T03:34:42.086Z,1007.71
2018-04-25T03:36:09.356Z,1007.70
2018-04-25T03:37:37.728Z,1007.71
2018-04-25T03:39:04.085Z,1007.69
2018-04-25T03:40:31.219Z,1007.67
2018-04-25T03:41:58.520Z,1007.65
2018-04-25T03:43:25.866Z,1007.66
2018-04-25T03:44:53.251Z,1007.66
2018-04-25T03:46:20.425Z,1007.64
2018-04-25T03:47:47.784Z,1007.62
2018-04-25T03:49:15.040Z,1007.61
2018-04-25T03:50:42.588Z,1007.54
2018-04-25T03:52:09.868Z,1007.48
2018-04-25T03:53:37.152Z,1007.46
2018-04-25T03:55:04.482Z,1007.43
2018-04-25T03:56:31.660Z,1007.31
2018-04-25T03:57:59.286Z,1007.24
2018-04-25T03:59:26.471Z,1007.21
2018-04-25T04:00:53.656Z,1007.17
2018-04-25T04:02:21.031Z,1007.14
2018-04-25T04:03:48.178Z,1007.13
2018-04-25T04:05:15.355Z,1007.08
2018-04-25T04:06:42.845Z,1006.98
2018-04-25T04:08:10.123Z,1007.01
2018-04-25T04:09:37.384Z,1006.98
2018-04-25T04:11:04.788Z,1006.95
2018-04-25T04:12:31.925Z,1006.93
2018-04-25T04:13:59.145Z,1006.91
2018-04-25T04:15:26.433Z,1006.83
2018-04-25T04:16:53.705Z,1006.76
2018-04-25T04:18:20.830Z,1006.73
2018-04-25T04:19:48.027Z,1006.75
2018-04-25T04:21:15.343Z,1006.76
2018-04-25T04:22:42.684Z,1006.75
2018-04-25T04:24:09.981Z,1006.72
2018-04-25T04:25:37.346Z,1006.68
2018-04-25T04:27:04.543Z,1006.68
2018-04-25T04:28:31.857Z,1006.72
2018-04-25T04:29:59.192Z,1006.76
2018-04-25T04:31:26.526Z,1006.80
2018-04-25T04:32:53.889Z,1006.83
2018-04-25T04:34:21.031Z,1006.85
2018-04-25T04:35:48.477Z,1006.83
2018-04-25T04:37:15.877Z,1006.66
2018-04-25T04:38:43.027Z,1006.59
2018-04-25T04:40:10.311Z,1006.58
2018-04-25T04:41:37.758Z,1006.45
2018-04-25T04:43:05.156Z,1006.31
2018-04-25T04:44:32.269Z,1006.24
2018-04-25T04:45:59.589Z,1006.18
2018-04-25T04:47:26.954Z,1006.30
2018-04-25T04:48:54.219Z,1006.42
2018-04-25T04:50:21.505Z,1006.34
2018-04-25T04:51:48.942Z,1006.30
2018-04-25T04:53:16.264Z,1006.27
2018-04-25T04:54:43.617Z,1006.30
2018-04-25T04:56:11.118Z,1006.30
2018-04-25T04:57:38.641Z,1006.32
2018-04-25T04:59:06.064Z,1006.33
2018-04-25T05:00:33.059Z,1006.27
2018-04-25T05:02:00.445Z,1006.26
2018-04-25T05:03:27.684Z,1006.20
2018-04-25T05:04:55.101Z,1006.20
2018-04-25T05:06:22.193Z,1006.22
2018-04-25T05:07:49.545Z,1006.20
2018-04-25T05:09:16.916Z,1006.20
2018-04-25T05:10:44.205Z,1006.16
2018-04-25T05:12:12.407Z,1006.13
2018-04-25T05:13:38.716Z,1006.08
2018-04-25T05:15:05.861Z,1006.07
2018-04-25T05:16:33.243Z,1006.05
2018-04-25T05:18:00.558Z,1006.03
2018-04-25T05:19:27.897Z,1006.05
2018-04-25T05:20:55.093Z,1006.12
2018-04-25T05:22:22.296Z,1006.12
2018-04-25T05:23:49.808Z,1006.09
2018-04-25T05:25:16.944Z,1006.03
2018-04-25T05:26:44.162Z,1006.03
2018-04-25T05:28:11.656Z,1006.04
2018-04-25T05:29:39.026Z,1006.03
2018-04-25T05:31:06.227Z,1005.98
2018-04-25T05:32:33.664Z,1005.96
2018-04-25T05:34:00.969Z,1005.99
2018-04-25T05:35:28.255Z,1005.97
2018-04-25T05:36:55.581Z,1005.94
2018-04-25T05:38:22.845Z,1005.88
2018-04-25T05:39:49.979Z,1005.84
2018-04-25T05:41:17.216Z,1005.83
2018-04-25T05:42:44.591Z,1005.87
2018-04-25T05:44:12.021Z,1005.83
2018-04-25T05:45:39.453Z,1005.81
2018-04-25T05:47:06.859Z,1005.76
2018-04-25T05:48:34.233Z,1005.79
2018-04-25T05:50:01.715Z,1005.83
2018-04-25T05:51:29.108Z,1005.80
2018-04-25T05:52:56.369Z,1005.82
2018-04-25T05:54:23.563Z,1005.77
2018-04-25T05:55:50.863Z,1005.74
2018-04-25T05:57:18.257Z,1005.70
2018-04-25T05:58:45.620Z,1005.70
2018-04-25T06:00:12.963Z,1005.60
2018-04-25T06:01:40.399Z,1005.56
2018-04-25T06:03:07.667Z,1005.52
2018-04-25T06:04:35.046Z,1005.45
2018-04-25T06:06:02.278Z,1005.40
2018-04-25T06:07:29.746Z,1005.40
2018-04-25T06:08:57.095Z,1005.33
2018-04-25T06:10:24.447Z,1005.36
2018-04-25T06:11:51.776Z,1005.35
2018-04-25T06:13:19.303Z,1005.38
2018-04-25T06:14:46.623Z,1005.39
2018-04-25T06:16:13.746Z,1005.35
2018-04-25T06:17:41.029Z,1005.36
2018-04-25T06:19:08.312Z,1005.33
2018-04-25T06:20:35.846Z,1005.40
2018-04-25T06:22:03.200Z,1005.36
2018-04-25T06:23:30.434Z,1005.29
2018-04-25T06:24:57.984Z,1005.32
2018-04-25T06:26:25.528Z,1005.21
2018-04-25T06:27:52.721Z,1005.17
2018-04-25T06:29:19.977Z,1005.14
2018-04-25T06:30:47.210Z,1005.17
2018-04-25T06:32:14.500Z,1005.19
2018-04-25T06:33:41.704Z,1005.16
2018-04-25T06:35:09.093Z,1005.20
2018-04-25T06:36:36.466Z,1005.19
2018-04-25T06:38:03.656Z,1005.21
2018-04-25T06:39:31.122Z,1005.16
2018-04-25T06:40:58.490Z,1005.19
2018-04-25T06:42:25.773Z,1005.07
2018-04-25T06:43:53.221Z,1005.04
2018-04-25T06:45:20.376Z,1005.05
2018-04-25T06:46:47.756Z,1005.07
2018-04-25T06:48:15.209Z,1005.07
2018-04-25T06:49:42.440Z,1005.07
2018-04-25T06:51:09.804Z,1005.01
2018-04-25T06:52:36.831Z,1005.01
2018-04-25T06:54:04.241Z,1004.96
2018-04-25T06:55:31.454Z,1004.88
2018-04-25T06:56:58.928Z,1004.80
2018-04-25T06:58:26.563Z,1004.78
2018-04-25T06:59:53.828Z,1004.76
2018-04-25T07:01:21.041Z,1004.78
2018-04-25T07:02:48.312Z,1004.73
2018-04-25T07:04:15.475Z,1004.65
2018-04-25T07:05:43.003Z,1004.65
2018-04-25T07:07:10.467Z,1004.66
2018-04-25T07:08:37.831Z,1004.62
2018-04-25T07:10:04.948Z,1004.61
2018-04-25T07:11:32.181Z,1004.58
2018-04-25T07:12:59.395Z,1004.54
2018-04-25T07:14:26.931Z,1004.49
2018-04-25T07:15:54.250Z,1004.47
2018-04-25T07:17:21.486Z,1004.49
2018-04-25T07:18:48.990Z,1004.52
2018-04-25T07:20:16.051Z,1004.41
2018-04-25T07:21:43.353Z,1004.42
2018-04-25T07:23:10.792Z,1004.40
2018-04-25T07:24:38.089Z,1004.42
2018-04-25T07:26:05.728Z,1004.49
2018-04-25T07:27:32.879Z,1004.46
2018-04-25T07:29:00.314Z,1004.41
2018-04-25T07:30:27.626Z,1004.41
2018-04-25T07:31:54.738Z,1004.42
2018-04-25T07:33:21.553Z,1004.47
2018-04-25T07:34:49.037Z,1004.38
2018-04-25T07:36:16.167Z,1004.33
2018-04-25T07:37:43.460Z,1004.27
2018-04-25T07:39:10.869Z,1004.32
2018-04-25T07:40:38.454Z,1004.36
2018-04-25T07:42:05.607Z,1004.33
2018-04-25T07:43:32.960Z,1004.31
2018-04-25T07:45:00.098Z,1004.24
2018-04-25T07:46:27.482Z,1004.16
2018-04-25T07:47:54.669Z,1004.15
2018-04-25T07:49:21.850Z,1004.21
2018-04-25T07:50:49.037Z,1004.21
2018-04-25T07:52:16.582Z,1004.19
2018-04-25T07:53:43.385Z,1004.17
2018-04-25T07:55:10.427Z,1004.14
2018-04-25T07:56:37.666Z,1004.11
2018-04-25T07:58:05.222Z,1004.11
2018-04-25T07:59:32.649Z,1004.09
2018-04-25T08:00:59.708Z,1004.05
2018-04-25T08:02:26.862Z,1004.06
2018-04-25T08:03:54.199Z,1004.10
2018-04-25T08:05:21.479Z,1004.02
2018-04-25T08:06:48.920Z,1004.00
2018-04-25T08:08:16.315Z,1003.97
2018-04-25T08:09:43.571Z,1004.02
2018-04-25T08:11:10.502Z,1004.04
2018-04-25T08:12:37.969Z,1004.06
2018-04-25T08:14:05.462Z,1004.02
2018-04-25T08:15:32.925Z,1003.99
2018-04-25T08:17:00.327Z,1003.96
2018-04-25T08:18:27.643Z,1003.99
2018-04-25T08:19:55.146Z,1004.00
2018-04-25T08:21:22.454Z,1003.96
2018-04-25T08:22:49.723Z,1003.96
2018-04-25T08:24:17.302Z,1003.99
2018-04-25T08:25:44.357Z,1004.02
2018-04-25T08:27:11.465Z,1003.94
2018-04-25T08:28:38.813Z,1003.93
2018-04-25T08:30:06.042Z,1003.98
2018-04-25T08:31:33.691Z,1003.97
2018-04-25T08:33:01.094Z,1003.99
2018-04-25T08:34:28.446Z,1003.95
2018-04-25T08:35:55.786Z,1003.95
2018-04-25T08:37:22.959Z,1003.95
2018-04-25T08:38:50.376Z,1003.87
2018-04-25T08:40:17.773Z,1003.83
2018-04-25T08:41:44.836Z,1003.82
2018-04-25T08:43:12.219Z,1003.74
2018-04-25T08:44:39.618Z,1003.76
2018-04-25T08:46:07.051Z,1003.78
2018-04-25T08:47:34.410Z,1003.85
2018-04-25T08:49:01.870Z,1003.80
2018-04-25T08:50:29.173Z,1003.83
2018-04-25T08:51:56.757Z,1003.83
2018-04-25T08:53:23.957Z,1003.89
2018-04-25T08:54:51.437Z,1003.87
2018-04-25T08:56:18.690Z,1003.87
2018-04-25T08:57:45.561Z,1003.93
2018-04-25T08:59:13.120Z,1003.97
2018-04-25T09:00:40.251Z,1003.97
2018-04-25T09:02:07.495Z,1003.96
2018-04-25T09:03:34.819Z,1003.96
2018-04-25T09:05:09.809Z,1003.98
2018-04-25T09:06:29.081Z,1003.91
2018-04-25T09:07:55.940Z,1003.88
2018-04-25T09:09:23.255Z,1003.86
2018-04-25T09:10:58.493Z,1003.95
2018-04-25T09:12:17.631Z,1003.95
2018-04-25T09:13:44.819Z,1003.92
2018-04-25T09:15:11.826Z,1003.93
2018-04-25T09:16:39.408Z,1003.91
2018-04-25T09:18:07.073Z,1003.81
2018-04-25T09:19:34.276Z,1003.82
2018-04-25T09:21:01.719Z,1003.89
2018-04-25T09:22:29.041Z,1003.91
2018-04-25T09:23:56.054Z,1003.92
2018-04-25T09:25:26.305Z,1003.83
2018-04-25T09:26:50.626Z,1003.89
2018-04-25T09:28:17.948Z,1003.92
2018-04-25T09:29:45.055Z,1003.90
2018-04-25T09:31:12.359Z,1003.89
2018-04-25T09:32:39.820Z,1003.78
2018-04-25T09:34:06.958Z,1003.77
2018-04-25T09:35:34.239Z,1003.75
2018-04-25T09:37:01.221Z,1003.74
2018-04-25T09:38:28.002Z,1003.74
2018-04-25T09:39:55.493Z,1003.76
2018-04-25T09:41:23.134Z,1003.73
2018-04-25T09:42:50.401Z,1003.67
2018-04-25T09:44:17.861Z,1003.72
2018-04-25T09:45:45.018Z,1003.67
2018-04-25T09:47:12.425Z,1003.68
2018-04-25T09:48:39.801Z,1003.71
2018-04-25T09:50:07.291Z,1003.73
2018-04-25T09:51:34.792Z,1003.75
2018-04-25T09:53:01.948Z,1003.78
2018-04-25T09:54:29.255Z,1003.79
2018-04-25T09:55:56.656Z,1003.77
2018-04-25T09:57:23.670Z,1003.82
2018-04-25T09:58:51.763Z,1003.72
2018-04-25T10:00:17.886Z,1003.75
2018-04-25T10:01:44.906Z,1003.72
2018-04-25T10:03:12.409Z,1003.69
2018-04-25T10:04:39.679Z,1003.78
2018-04-25T10:06:06.686Z,1003.82
2018-04-25T10:07:33.978Z,1003.82
2018-04-25T10:09:01.258Z,1003.90
2018-04-25T10:10:28.340Z,1003.86
2018-04-25T10:11:55.637Z,1003.92
2018-04-25T10:13:23.004Z,1003.97
2018-04-25T10:14:50.420Z,1003.97
2018-04-25T10:16:17.123Z,1003.97
2018-04-25T10:17:44.460Z,1003.89
2018-04-25T10:19:11.991Z,1003.87
2018-04-25T10:20:39.252Z,1003.89
2018-04-25T10:22:06.732Z,1003.90
2018-04-25T10:23:34.259Z,1003.82
2018-04-25T10:25:01.560Z,1003.85
2018-04-25T10:26:29.049Z,1003.89
2018-04-25T10:27:56.446Z,1003.88
2018-04-25T10:29:23.849Z,1003.86
2018-04-25T10:30:50.876Z,1003.83
2018-04-25T10:32:18.433Z,1003.85
2018-04-25T10:33:45.779Z,1003.90
2018-04-25T10:35:13.328Z,1003.88
2018-04-25T10:36:40.825Z,1003.94
2018-04-25T10:38:07.376Z,1003.93
2018-04-25T10:39:34.452Z,1003.94
2018-04-25T10:41:01.384Z,1003.95
2018-04-25T10:42:29.886Z,1003.94
2018-04-25T10:43:56.353Z,1003.97
2018-04-25T10:45:23.611Z,1004.05
2018-04-25T10:46:51.062Z,1004.07
2018-04-25T10:48:18.562Z,1004.02
2018-04-25T10:49:45.765Z,1004.09
2018-04-25T10:51:13.286Z,1004.10
2018-04-25T10:52:40.704Z,1004.12
2018-04-25T10:54:08.298Z,1004.06
2018-04-25T10:55:34.993Z,1004.07
2018-04-25T10:57:02.468Z,1004.09
2018-04-25T10:58:29.329Z,1004.09
2018-04-25T10:59:56.694Z,1004.12
2018-04-25T11:01:24.167Z,1004.13
2018-04-25T11:02:51.677Z,1004.18
2018-04-25T11:04:19.082Z,1004.21
2018-04-25T11:05:46.544Z,1004.21
2018-04-25T11:07:13.700Z,1004.24
2018-04-25T11:08:41.075Z,1004.22
2018-04-25T11:10:08.517Z,1004.25
2018-04-25T11:11:35.888Z,1004.26
2018-04-25T11:13:03.108Z,1004.29
2018-04-25T11:14:30.265Z,1004.31
2018-04-25T11:15:57.259Z,1004.37
2018-04-25T11:17:24.661Z,1004.45
2018-04-25T11:18:51.476Z,1004.43
2018-04-25T11:20:18.633Z,1004.47
2018-04-25T11:21:45.812Z,1004.44
2018-04-25T11:23:12.905Z,1004.47
2018-04-25T11:24:40.366Z,1004.52
2018-04-25T11:26:07.935Z,1004.57
2018-04-25T11:27:35.362Z,1004.60
2018-04-25T11:29:02.880Z,1004.67
2018-04-25T11:30:30.448Z,1004.75
2018-04-25T11:31:57.821Z,1004.78
2018-04-25T11:33:24.975Z,1004.78
2018-04-25T11:34:52.419Z,1004.79
2018-04-25T11:36:19.731Z,1004.86
2018-04-25T11:37:46.961Z,1004.95
2018-04-25T11:39:14.374Z,1005.04
2018-04-25T11:40:41.926Z,1005.01
2018-04-25T11:42:09.045Z,1005.04
2018-04-25T11:43:36.484Z,1005.08
2018-04-25T11:45:03.313Z,1005.15
2018-04-25T11:46:30.615Z,1005.15
2018-04-25T11:47:58.114Z,1005.24
2018-04-25T11:49:25.463Z,1005.21
2018-04-25T11:50:52.866Z,1005.31
2018-04-25T11:52:20.106Z,1005.40
2018-04-25T11:53:47.412Z,1005.49
2018-04-25T11:55:14.460Z,1005.50
2018-04-25T11:56:41.031Z,1005.57
2018-04-25T11:58:08.326Z,1005.60
2018-04-25T11:59:35.859Z,1005.65
2018-04-25T12:01:03.152Z,1005.68
2018-04-25T12:02:30.581Z,1005.70
2018-04-25T12:03:57.868Z,1005.75
2018-04-25T12:05:25.036Z,1005.77
2018-04-25T12:06:52.217Z,1005.80
2018-04-25T12:08:19.644Z,1005.85
2018-04-25T12:09:46.912Z,1005.85
2018-04-25T12:11:13.950Z,1005.89
2018-04-25T12:12:41.379Z,1005.90
2018-04-25T12:14:08.591Z,1005.95
2018-04-25T12:15:36.064Z,1005.96
2018-04-25T12:17:03.278Z,1006.04
2018-04-25T12:18:30.539Z,1006.12
2018-04-25T12:19:57.638Z,1006.16
2018-04-25T12:21:24.916Z,1006.24
2018-04-25T12:22:52.203Z,1006.28
2018-04-25T12:24:19.474Z,1006.30
2018-04-25T12:25:47.060Z,1006.30
2018-04-25T12:27:13.860Z,1006.39
2018-04-25T12:28:41.110Z,1006.41
2018-04-25T12:30:08.598Z,1006.47
2018-04-25T12:31:36.127Z,1006.47
2018-04-25T12:33:03.338Z,1006.51
2018-04-25T12:34:30.679Z,1006.56
2018-04-25T12:35:58.063Z,1006.59
2018-04-25T12:37:25.342Z,1006.67
2018-04-25T12:38:52.360Z,1006.76
2018-04-25T12:40:19.447Z,1006.76
2018-04-25T12:41:46.592Z,1006.79
2018-04-25T12:43:13.396Z,1006.84
2018-04-25T12:44:40.007Z,1006.89
2018-04-25T12:46:07.370Z,1006.98
2018-04-25T12:47:34.436Z,1007.01
2018-04-25T12:49:01.244Z,1007.13
2018-04-25T12:50:28.473Z,1007.15
2018-04-25T12:51:55.772Z,1007.19
2018-04-25T12:53:22.806Z,1007.31
2018-04-25T12:54:49.758Z,1007.52
2018-04-25T12:56:16.656Z,1007.64
2018-04-25T12:57:43.768Z,1007.68
2018-04-25T12:59:11.145Z,1007.74
2018-04-25T13:00:38.468Z,1007.79
2018-04-25T13:02:05.950Z,1007.87
2018-04-25T13:03:33.048Z,1007.90
2018-04-25T13:05:00.328Z,1007.93
2018-04-25T13:06:26.879Z,1007.98
2018-04-25T13:07:54.187Z,1008.04
2018-04-25T13:09:21.394Z,1008.08
2018-04-25T13:10:48.583Z,1008.09
2018-04-25T13:12:16.044Z,1008.14
2018-04-25T13:13:42.923Z,1008.24
2018-04-25T13:15:10.322Z,1008.30
2018-04-25T13:16:37.644Z,1008.31
2018-04-25T13:18:05.065Z,1008.37
2018-04-25T13:19:32.358Z,1008.42
2018-04-25T13:20:59.990Z,1008.46
2018-04-25T13:22:27.345Z,1008.53
2018-04-25T13:23:54.646Z,1008.67
2018-04-25T13:25:21.988Z,1008.76
2018-04-25T13:26:49.262Z,1008.81
2018-04-25T13:28:16.576Z,1008.85
2018-04-25T13:29:43.188Z,1008.90
2018-04-25T13:31:10.627Z,1008.95
2018-04-25T13:32:37.883Z,1009.02
2018-04-25T13:34:04.961Z,1009.09
2018-04-25T13:35:32.360Z,1009.13
2018-04-25T13:36:59.327Z,1009.14
2018-04-25T13:38:26.711Z,1009.20
2018-04-25T13:39:54.109Z,1009.24
2018-04-25T13:41:21.278Z,1009.30
2018-04-25T13:42:48.513Z,1009.34
2018-04-25T13:44:15.691Z,1009.33
2018-04-25T13:45:43.084Z,1009.39
2018-04-25T13:47:10.264Z,1009.49
2018-04-25T13:48:37.687Z,1009.49
2018-04-25T13:50:04.996Z,1009.50
2018-04-25T13:51:32.200Z,1009.62
2018-04-25T13:52:59.581Z,1009.63
2018-04-25T13:54:26.890Z,1009.68
2018-04-25T13:55:54.192Z,1009.71
2018-04-25T13:57:21.564Z,1009.75
2018-04-25T13:58:48.821Z,1009.82
2018-04-25T14:00:16.014Z,1009.86
2018-04-25T14:01:43.294Z,1009.88
2018-04-25T14:03:10.804Z,1009.94
2018-04-25T14:04:37.768Z,1009.96
2018-04-25T14:06:05.106Z,1009.93
2018-04-25T14:07:32.211Z,1009.98
2018-04-25T14:08:59.491Z,1010.00
2018-04-25T14:10:26.794Z,1010.06
2018-04-25T14:11:53.945Z,1010.13
2018-04-25T14:13:20.976Z,1010.15
2018-04-25T14:14:48.270Z,1010.21
2018-04-25T14:16:15.402Z,1010.23
2018-04-25T14:17:42.276Z,1010.29
2018-04-25T14:19:09.615Z,1010.31
2018-04-25T14:20:37.101Z,1010.35
2018-04-25T14:22:04.330Z,1010.38
2018-04-25T14:23:31.718Z,1010.41
2018-04-25T14:24:58.993Z,1010.43
2018-04-25T14:26:26.464Z,1010.44
2018-04-25T14:27:53.662Z,1010.44
2018-04-25T14:29:20.898Z,1010.43
2018-04-25T14:30:48.237Z,1010.46
2018-04-25T14:32:15.434Z,1010.52
2018-04-25T14:33:42.811Z,1010.55
2018-04-25T14:35:10.072Z,1010.56
2018-04-25T14:36:37.319Z,1010.60
2018-04-25T14:38:04.841Z,1010.63
2018-04-25T14:39:31.698Z,1010.71
2018-04-25T14:40:59.088Z,1010.75
2018-04-25T14:42:26.247Z,1010.77
2018-04-25T14:43:53.580Z,1010.81
2018-04-25T14:45:20.454Z,1010.83
2018-04-25T14:46:47.444Z,1010.80
2018-04-25T14:48:14.624Z,1010.88
2018-04-25T14:49:42.087Z,1010.90
2018-04-25T14:51:09.703Z,1010.90
2018-04-25T14:52:36.598Z,1010.92
2018-04-25T14:54:03.727Z,1010.97
2018-04-25T14:55:31.236Z,1010.99
2018-04-25T14:56:58.663Z,1011.02
2018-04-25T14:58:25.918Z,1011.07
2018-04-25T14:59:53.279Z,1011.08
2018-04-25T15:01:20.588Z,1011.14
2018-04-25T15:02:47.759Z,1011.18
2018-04-25T15:04:14.833Z,1011.18
2018-04-25T15:05:42.217Z,1011.17
2018-04-25T15:07:09.814Z,1011.13
2018-04-25T15:08:37.117Z,1011.13
2018-04-25T15:10:04.362Z,1011.17
2018-04-25T15:11:31.721Z,1011.17
2018-04-25T15:12:59.190Z,1011.19
2018-04-25T15:14:26.197Z,1011.22
2018-04-25T15:15:53.534Z,1011.23
2018-04-25T15:17:20.744Z,1011.23
2018-04-25T15:18:48.218Z,1011.23
2018-04-25T15:20:15.472Z,1011.26
2018-04-25T15:21:42.920Z,1011.23
2018-04-25T15:23:10.319Z,1011.22
2018-04-25T15:24:37.712Z,1011.19
2018-04-25T15:26:04.869Z,1011.19
2018-04-25T15:27:32.323Z,1011.22
2018-04-25T15:28:59.415Z,1011.23
2018-04-25T15:30:26.952Z,1011.28
2018-04-25T15:31:54.128Z,1011.29
2018-04-25T15:33:21.393Z,1011.34
2018-04-25T15:34:48.663Z,1011.30
2018-04-25T15:36:15.864Z,1011.29
2018-04-25T15:37:42.993Z,1011.32
2018-04-25T15:39:10.280Z,1011.30
2018-04-25T15:40:37.341Z,1011.36
2018-04-25T15:42:04.697Z,1011.38
2018-04-25T15:43:32.004Z,1011.36
2018-04-25T15:44:59.411Z,1011.35
2018-04-25T15:46:26.667Z,1011.35
2018-04-25T15:47:53.882Z,1011.33
2018-04-25T15:49:21.039Z,1011.35
2018-04-25T15:50:48.356Z,1011.35
2018-04-25T15:52:15.489Z,1011.37
2018-04-25T15:53:42.975Z,1011.41
2018-04-25T15:55:10.335Z,1011.43
2018-04-25T15:56:37.849Z,1011.46
2018-04-25T15:58:05.025Z,1011.45
2018-04-25T15:59:32.538Z,1011.46
2018-04-25T16:00:59.928Z,1011.47
2018-04-25T16:02:27.062Z,1011.47
2018-04-25T16:03:54.427Z,1011.45
2018-04-25T16:05:21.601Z,1011.43
2018-04-25T16:06:48.748Z,1011.44
2018-04-25T16:08:15.892Z,1011.46
2018-04-25T16:09:43.312Z,1011.48
2018-04-25T16:11:10.677Z,1011.49
2018-04-25T16:12:37.915Z,1011.50
2018-04-25T16:14:05.367Z,1011.51
2018-04-25T16:15:32.802Z,1011.49
2018-04-25T16:17:00.248Z,1011.52
2018-04-25T16:18:27.530Z,1011.54
2018-04-25T16:19:54.952Z,1011.55
2018-04-25T16:21:22.366Z,1011.59
2018-04-25T16:22:49.791Z,1011.59
2018-04-25T16:24:16.951Z,1011.60
2018-04-25T16:25:44.181Z,1011.62
2018-04-25T16:27:11.499Z,1011.57
2018-04-25T16:28:39.002Z,1011.61
2018-04-25T16:30:06.341Z,1011.61
2018-04-25T16:31:33.658Z,1011.60
2018-04-25T16:33:01.065Z,1011.61
2018-04-25T16:34:28.382Z,1011.64
2018-04-25T16:35:55.536Z,1011.69
2018-04-25T16:37:22.767Z,1011.68
2018-04-25T16:38:50.108Z,1011.72
2018-04-25T16:40:17.499Z,1011.73
2018-04-25T16:41:44.730Z,1011.71
2018-04-25T16:43:12.035Z,1011.71
2018-04-25T16:44:39.544Z,1011.73
2018-04-25T16:46:06.967Z,1011.75
2018-04-25T16:47:34.470Z,1011.76
2018-04-25T16:49:01.835Z,1011.74
2018-04-25T16:50:29.186Z,1011.72
2018-04-25T16:51:56.581Z,1011.71
2018-04-25T16:53:23.803Z,1011.72
2018-04-25T16:54:50.961Z,1011.71
2018-04-25T16:56:18.348Z,1011.71
2018-04-25T16:57:45.313Z,1011.71
2018-04-25T16:59:12.697Z,1011.71
2018-04-25T17:00:40.190Z,1011.71
2018-04-25T17:02:07.673Z,1011.72
2018-04-25T17:03:35.051Z,1011.74
2018-04-25T17:05:02.267Z,1011.74
2018-04-25T17:06:29.568Z,1011.73
2018-04-25T17:07:57.028Z,1011.67
2018-04-25T17:09:24.103Z,1011.66
2018-04-25T17:10:51.431Z,1011.68
2018-04-25T17:12:18.722Z,1011.69
2018-04-25T17:13:45.771Z,1011.72
2018-04-25T17:15:12.797Z,1011.72
2018-04-25T17:16:40.250Z,1011.77
2018-04-25T17:18:07.653Z,1011.81
2018-04-25T17:19:34.871Z,1011.82
2018-04-25T17:21:02.201Z,1011.84
2018-04-25T17:22:29.575Z,1011.84
2018-04-25T17:23:56.933Z,1011.83
2018-04-25T17:25:24.213Z,1011.82
2018-04-25T17:26:51.500Z,1011.85
2018-04-25T17:28:18.903Z,1011.86
2018-04-25T17:29:46.087Z,1011.84
2018-04-25T17:31:13.371Z,1011.87
2018-04-25T17:32:40.860Z,1011.87
2018-04-25T17:34:08.458Z,1011.88
2018-04-25T17:35:35.670Z,1011.85